sensor_id;sensor_type;location;lat;lon;timestamp;P1;durP1;ratioP1;P2;durP2;ratioP2
20523;SDS011;10420;48.542;12.270;2022-12-18T00:04:53;74.87;;;23.50;;
20523;SDS011;10420;48.542;12.270;2022-12-18T00:09:54;85.20;;;27.27;;
20523;SDS011;10420;48.542;12.270;2022-12-18T00:14:54;82.07;;;25.43;;
20523;SDS011;10420;48.542;12.270;2022-12-18T00:19:55;77.63;;;25.57;;
20523;SDS011;10420;48.542;12.270;2022-12-18T00:24:56;91.20;;;26.00;;
20523;SDS011;10420;48.542;12.270;2022-12-18T00:29:56;83.87;;;27.83;;
20523;SDS011;10420;48.542;12.270;2022-12-18T00:34:57;83.13;;;26.70;;
20523;SDS011;10420;48.542;12.270;2022-12-18T00:39:57;84.63;;;27.63;;
20523;SDS011;10420;48.542;12.270;2022-12-18T00:44:58;83.63;;;26.77;;
20523;SDS011;10420;48.542;12.270;2022-12-18T00:49:59;89.77;;;26.07;;
20523;SDS011;10420;48.542;12.270;2022-12-18T00:54:59;96.53;;;26.87;;
20523;SDS011;10420;48.542;12.270;2022-12-18T01:00:00;81.67;;;23.03;;
20523;SDS011;10420;48.542;12.270;2022-12-18T01:05:01;84.83;;;26.10;;
20523;SDS011;10420;48.542;12.270;2022-12-18T01:10:02;83.43;;;25.17;;
20523;SDS011;10420;48.542;12.270;2022-12-18T01:15:04;92.83;;;29.57;;
20523;SDS011;10420;48.542;12.270;2022-12-18T01:20:06;96.27;;;27.13;;
20523;SDS011;10420;48.542;12.270;2022-12-18T01:25:07;97.57;;;28.63;;
20523;SDS011;10420;48.542;12.270;2022-12-18T01:30:08;89.77;;;27.57;;
20523;SDS011;10420;48.542;12.270;2022-12-18T01:35:09;73.87;;;23.53;;
20523;SDS011;10420;48.542;12.270;2022-12-18T01:40:10;93.23;;;26.27;;
20523;SDS011;10420;48.542;12.270;2022-12-18T01:55:18;95.60;;;28.90;;
20523;SDS011;10420;48.542;12.270;2022-12-18T02:00:22;100.23;;;26.07;;
20523;SDS011;10420;48.542;12.270;2022-12-18T02:10:42;71.67;;;23.63;;
20523;SDS011;10420;48.542;12.270;2022-12-18T02:21:12;90.37;;;26.23;;
20523;SDS011;10420;48.542;12.270;2022-12-18T02:26:43;96.17;;;26.73;;
20523;SDS011;10420;48.542;12.270;2022-12-18T02:31:58;85.87;;;26.60;;
20523;SDS011;10420;48.542;12.270;2022-12-18T02:37:00;80.13;;;25.20;;
20523;SDS011;10420;48.542;12.270;2022-12-18T02:42:05;69.80;;;21.40;;
20523;SDS011;10420;48.542;12.270;2022-12-18T02:47:09;76.67;;;25.23;;
20523;SDS011;10420;48.542;12.270;2022-12-18T03:02:39;83.17;;;25.57;;
20523;SDS011;10420;48.542;12.270;2022-12-18T03:08:06;85.70;;;26.60;;
20523;SDS011;10420;48.542;12.270;2022-12-18T03:13:14;84.30;;;25.53;;
20523;SDS011;10420;48.542;12.270;2022-12-18T03:18:25;78.93;;;25.87;;
20523;SDS011;10420;48.542;12.270;2022-12-18T03:23:34;68.97;;;21.60;;
20523;SDS011;10420;48.542;12.270;2022-12-18T03:28:47;65.70;;;20.33;;
20523;SDS011;10420;48.542;12.270;2022-12-18T03:34:02;82.57;;;25.40;;
20523;SDS011;10420;48.542;12.270;2022-12-18T03:39:09;57.77;;;16.67;;
20523;SDS011;10420;48.542;12.270;2022-12-18T03:44:14;81.73;;;25.47;;
20523;SDS011;10420;48.542;12.270;2022-12-18T03:54:50;87.27;;;26.30;;
20523;SDS011;10420;48.542;12.270;2022-12-18T03:59:54;83.07;;;23.73;;
20523;SDS011;10420;48.542;12.270;2022-12-18T04:05:00;89.13;;;26.13;;
20523;SDS011;10420;48.542;12.270;2022-12-18T04:10:05;92.40;;;28.67;;
20523;SDS011;10420;48.542;12.270;2022-12-18T04:15:07;91.90;;;29.20;;
20523;SDS011;10420;48.542;12.270;2022-12-18T04:20:09;61.03;;;18.50;;
20523;SDS011;10420;48.542;12.270;2022-12-18T04:25:09;77.83;;;25.10;;
20523;SDS011;10420;48.542;12.270;2022-12-18T04:30:10;75.57;;;23.60;;
20523;SDS011;10420;48.542;12.270;2022-12-18T04:35:19;75.03;;;23.67;;
20523;SDS011;10420;48.542;12.270;2022-12-18T04:40:28;79.00;;;23.73;;
20523;SDS011;10420;48.542;12.270;2022-12-18T04:45:32;73.93;;;24.73;;
20523;SDS011;10420;48.542;12.270;2022-12-18T04:50:33;76.73;;;23.93;;
20523;SDS011;10420;48.542;12.270;2022-12-18T04:55:33;57.40;;;18.80;;
20523;SDS011;10420;48.542;12.270;2022-12-18T05:00:34;63.17;;;20.77;;
20523;SDS011;10420;48.542;12.270;2022-12-18T05:05:35;60.43;;;19.23;;
20523;SDS011;10420;48.542;12.270;2022-12-18T05:10:35;67.67;;;19.87;;
20523;SDS011;10420;48.542;12.270;2022-12-18T05:15:36;79.23;;;22.90;;
20523;SDS011;10420;48.542;12.270;2022-12-18T05:20:37;78.90;;;26.00;;
20523;SDS011;10420;48.542;12.270;2022-12-18T05:25:37;54.80;;;18.53;;
20523;SDS011;10420;48.542;12.270;2022-12-18T05:30:38;76.47;;;23.57;;
20523;SDS011;10420;48.542;12.270;2022-12-18T05:35:39;67.77;;;22.67;;
20523;SDS011;10420;48.542;12.270;2022-12-18T05:40:41;62.43;;;20.53;;
20523;SDS011;10420;48.542;12.270;2022-12-18T05:45:43;62.13;;;18.53;;
20523;SDS011;10420;48.542;12.270;2022-12-18T05:50:44;64.33;;;18.33;;
20523;SDS011;10420;48.542;12.270;2022-12-18T05:55:46;81.17;;;23.90;;
20523;SDS011;10420;48.542;12.270;2022-12-18T06:00:47;69.70;;;20.10;;
20523;SDS011;10420;48.542;12.270;2022-12-18T06:05:48;70.17;;;23.07;;
20523;SDS011;10420;48.542;12.270;2022-12-18T06:10:49;71.97;;;23.60;;
20523;SDS011;10420;48.542;12.270;2022-12-18T06:15:51;78.17;;;24.70;;
20523;SDS011;10420;48.542;12.270;2022-12-18T06:20:55;80.90;;;29.37;;
20523;SDS011;10420;48.542;12.270;2022-12-18T06:25:56;50.97;;;17.50;;
20523;SDS011;10420;48.542;12.270;2022-12-18T06:30:57;71.63;;;23.20;;
20523;SDS011;10420;48.542;12.270;2022-12-18T06:36:02;92.90;;;28.67;;
20523;SDS011;10420;48.542;12.270;2022-12-18T06:41:11;103.17;;;34.10;;
20523;SDS011;10420;48.542;12.270;2022-12-18T06:46:13;61.97;;;18.97;;
20523;SDS011;10420;48.542;12.270;2022-12-18T06:51:21;73.43;;;23.90;;
20523;SDS011;10420;48.542;12.270;2022-12-18T06:56:23;70.80;;;21.90;;
20523;SDS011;10420;48.542;12.270;2022-12-18T07:01:24;66.97;;;23.47;;
20523;SDS011;10420;48.542;12.270;2022-12-18T07:06:25;64.43;;;18.90;;
20523;SDS011;10420;48.542;12.270;2022-12-18T07:11:29;74.83;;;24.67;;
20523;SDS011;10420;48.542;12.270;2022-12-18T07:16:32;77.00;;;24.47;;
20523;SDS011;10420;48.542;12.270;2022-12-18T07:21:32;75.60;;;23.43;;
20523;SDS011;10420;48.542;12.270;2022-12-18T07:26:33;77.23;;;25.00;;
20523;SDS011;10420;48.542;12.270;2022-12-18T07:31:34;82.20;;;25.70;;
20523;SDS011;10420;48.542;12.270;2022-12-18T07:36:34;91.97;;;30.33;;
20523;SDS011;10420;48.542;12.270;2022-12-18T07:41:35;65.63;;;19.23;;
20523;SDS011;10420;48.542;12.270;2022-12-18T07:46:35;62.87;;;20.80;;
20523;SDS011;10420;48.542;12.270;2022-12-18T07:51:36;80.60;;;25.47;;
20523;SDS011;10420;48.542;12.270;2022-12-18T07:56:37;72.87;;;22.97;;
20523;SDS011;10420;48.542;12.270;2022-12-18T08:01:37;82.90;;;25.53;;
20523;SDS011;10420;48.542;12.270;2022-12-18T08:06:38;68.97;;;21.60;;
20523;SDS011;10420;48.542;12.270;2022-12-18T08:11:38;73.50;;;22.87;;
20523;SDS011;10420;48.542;12.270;2022-12-18T08:16:39;65.30;;;21.27;;
20523;SDS011;10420;48.542;12.270;2022-12-18T08:21:40;71.90;;;22.97;;
20523;SDS011;10420;48.542;12.270;2022-12-18T08:26:40;75.60;;;24.40;;
20523;SDS011;10420;48.542;12.270;2022-12-18T08:31:41;55.60;;;17.97;;
20523;SDS011;10420;48.542;12.270;2022-12-18T08:36:42;67.80;;;22.77;;
20523;SDS011;10420;48.542;12.270;2022-12-18T08:41:43;56.83;;;17.33;;
20523;SDS011;10420;48.542;12.270;2022-12-18T08:47:04;61.40;;;19.37;;
20523;SDS011;10420;48.542;12.270;2022-12-18T08:52:05;82.73;;;24.80;;
20523;SDS011;10420;48.542;12.270;2022-12-18T08:57:06;69.87;;;23.23;;
20523;SDS011;10420;48.542;12.270;2022-12-18T09:02:08;66.90;;;21.57;;
20523;SDS011;10420;48.542;12.270;2022-12-18T09:07:10;59.20;;;20.90;;
20523;SDS011;10420;48.542;12.270;2022-12-18T09:12:11;73.90;;;23.43;;
20523;SDS011;10420;48.542;12.270;2022-12-18T09:17:12;70.33;;;25.83;;
20523;SDS011;10420;48.542;12.270;2022-12-18T09:22:15;54.63;;;21.10;;
20523;SDS011;10420;48.542;12.270;2022-12-18T09:27:15;59.03;;;22.33;;
20523;SDS011;10420;48.542;12.270;2022-12-18T09:32:16;68.93;;;23.20;;
20523;SDS011;10420;48.542;12.270;2022-12-18T09:37:17;42.93;;;16.30;;
20523;SDS011;10420;48.542;12.270;2022-12-18T09:42:20;57.93;;;20.70;;
20523;SDS011;10420;48.542;12.270;2022-12-18T09:47:25;56.53;;;20.27;;
20523;SDS011;10420;48.542;12.270;2022-12-18T09:52:37;63.90;;;20.37;;
20523;SDS011;10420;48.542;12.270;2022-12-18T09:57:44;54.20;;;20.47;;
20523;SDS011;10420;48.542;12.270;2022-12-18T10:02:48;57.87;;;20.73;;
20523;SDS011;10420;48.542;12.270;2022-12-18T10:23:58;68.20;;;24.07;;
20523;SDS011;10420;48.542;12.270;2022-12-18T10:29:25;56.37;;;20.30;;
20523;SDS011;10420;48.542;12.270;2022-12-18T10:34:25;41.83;;;16.40;;
20523;SDS011;10420;48.542;12.270;2022-12-18T10:39:26;49.53;;;19.23;;
20523;SDS011;10420;48.542;12.270;2022-12-18T10:44:27;50.53;;;18.43;;
20523;SDS011;10420;48.542;12.270;2022-12-18T10:49:28;53.30;;;19.37;;
20523;SDS011;10420;48.542;12.270;2022-12-18T10:54:31;57.03;;;21.63;;
20523;SDS011;10420;48.542;12.270;2022-12-18T10:59:33;57.27;;;20.07;;
20523;SDS011;10420;48.542;12.270;2022-12-18T11:04:54;56.07;;;19.40;;
20523;SDS011;10420;48.542;12.270;2022-12-18T11:10:04;47.03;;;15.77;;
20523;SDS011;10420;48.542;12.270;2022-12-18T11:15:05;50.20;;;18.10;;
20523;SDS011;10420;48.542;12.270;2022-12-18T11:20:27;49.53;;;18.90;;
20523;SDS011;10420;48.542;12.270;2022-12-18T11:25:32;54.67;;;19.57;;
20523;SDS011;10420;48.542;12.270;2022-12-18T11:30:34;50.27;;;17.70;;
20523;SDS011;10420;48.542;12.270;2022-12-18T11:35:49;59.73;;;19.53;;
20523;SDS011;10420;48.542;12.270;2022-12-18T11:41:03;40.07;;;13.93;;
20523;SDS011;10420;48.542;12.270;2022-12-18T11:46:05;38.10;;;14.93;;
20523;SDS011;10420;48.542;12.270;2022-12-18T11:51:50;51.97;;;19.40;;
20523;SDS011;10420;48.542;12.270;2022-12-18T11:57:02;45.47;;;16.17;;
20523;SDS011;10420;48.542;12.270;2022-12-18T12:24:00;56.87;;;21.03;;
20523;SDS011;10420;48.542;12.270;2022-12-18T12:34:36;49.00;;;18.50;;
20523;SDS011;10420;48.542;12.270;2022-12-18T12:39:49;46.70;;;19.93;;
20523;SDS011;10420;48.542;12.270;2022-12-18T12:44:55;48.83;;;20.83;;
20523;SDS011;10420;48.542;12.270;2022-12-18T12:49:57;60.80;;;22.80;;
20523;SDS011;10420;48.542;12.270;2022-12-18T12:55:00;50.70;;;19.67;;
20523;SDS011;10420;48.542;12.270;2022-12-18T13:00:14;53.33;;;19.70;;
20523;SDS011;10420;48.542;12.270;2022-12-18T13:10:58;57.87;;;18.37;;
20523;SDS011;10420;48.542;12.270;2022-12-18T13:16:19;53.97;;;19.03;;
20523;SDS011;10420;48.542;12.270;2022-12-18T13:21:23;52.87;;;19.17;;
20523;SDS011;10420;48.542;12.270;2022-12-18T13:26:29;49.43;;;18.20;;
20523;SDS011;10420;48.542;12.270;2022-12-18T13:42:39;57.83;;;21.13;;
20523;SDS011;10420;48.542;12.270;2022-12-18T13:47:59;54.53;;;22.30;;
20523;SDS011;10420;48.542;12.270;2022-12-18T13:53:00;51.73;;;19.80;;
20523;SDS011;10420;48.542;12.270;2022-12-18T13:58:04;43.30;;;16.93;;
20523;SDS011;10420;48.542;12.270;2022-12-18T14:03:15;57.37;;;20.60;;
20523;SDS011;10420;48.542;12.270;2022-12-18T14:08:21;56.43;;;22.00;;
20523;SDS011;10420;48.542;12.270;2022-12-18T14:13:32;55.90;;;21.80;;
20523;SDS011;10420;48.542;12.270;2022-12-18T14:29:21;48.03;;;18.37;;
20523;SDS011;10420;48.542;12.270;2022-12-18T14:34:27;59.27;;;22.03;;
20523;SDS011;10420;48.542;12.270;2022-12-18T14:39:28;69.07;;;25.93;;
20523;SDS011;10420;48.542;12.270;2022-12-18T14:44:28;56.90;;;20.77;;
20523;SDS011;10420;48.542;12.270;2022-12-18T14:49:30;71.57;;;22.93;;
20523;SDS011;10420;48.542;12.270;2022-12-18T14:54:33;67.47;;;24.27;;
20523;SDS011;10420;48.542;12.270;2022-12-18T14:59:37;106.97;;;31.40;;
20523;SDS011;10420;48.542;12.270;2022-12-18T15:04:38;83.63;;;26.03;;
20523;SDS011;10420;48.542;12.270;2022-12-18T15:09:41;172.60;;;43.60;;
20523;SDS011;10420;48.542;12.270;2022-12-18T15:15:01;131.27;;;38.20;;
20523;SDS011;10420;48.542;12.270;2022-12-18T15:20:07;103.20;;;34.27;;
20523;SDS011;10420;48.542;12.270;2022-12-18T15:30:36;70.60;;;27.27;;
20523;SDS011;10420;48.542;12.270;2022-12-18T15:35:37;57.53;;;21.93;;
20523;SDS011;10420;48.542;12.270;2022-12-18T15:40:37;69.30;;;23.63;;
20523;SDS011;10420;48.542;12.270;2022-12-18T15:45:38;65.33;;;23.07;;
20523;SDS011;10420;48.542;12.270;2022-12-18T15:50:39;59.57;;;21.27;;
20523;SDS011;10420;48.542;12.270;2022-12-18T15:55:40;51.70;;;18.23;;
20523;SDS011;10420;48.542;12.270;2022-12-18T16:00:59;50.50;;;18.83;;
20523;SDS011;10420;48.542;12.270;2022-12-18T16:06:00;55.73;;;19.03;;
20523;SDS011;10420;48.542;12.270;2022-12-18T16:11:02;52.70;;;19.73;;
20523;SDS011;10420;48.542;12.270;2022-12-18T16:16:02;53.90;;;19.40;;
20523;SDS011;10420;48.542;12.270;2022-12-18T16:21:03;49.87;;;17.67;;
20523;SDS011;10420;48.542;12.270;2022-12-18T16:26:04;48.57;;;18.30;;
20523;SDS011;10420;48.542;12.270;2022-12-18T16:31:05;49.53;;;18.40;;
20523;SDS011;10420;48.542;12.270;2022-12-18T16:36:05;47.00;;;17.53;;
20523;SDS011;10420;48.542;12.270;2022-12-18T16:41:18;59.40;;;18.60;;
20523;SDS011;10420;48.542;12.270;2022-12-18T16:46:31;65.37;;;23.97;;
20523;SDS011;10420;48.542;12.270;2022-12-18T16:51:31;73.83;;;27.80;;
20523;SDS011;10420;48.542;12.270;2022-12-18T16:56:34;75.57;;;27.43;;
20523;SDS011;10420;48.542;12.270;2022-12-18T17:01:34;72.27;;;25.10;;
20523;SDS011;10420;48.542;12.270;2022-12-18T17:06:39;71.47;;;23.70;;
20523;SDS011;10420;48.542;12.270;2022-12-18T17:11:44;61.73;;;22.53;;
20523;SDS011;10420;48.542;12.270;2022-12-18T17:16:45;73.30;;;22.30;;
20523;SDS011;10420;48.542;12.270;2022-12-18T17:21:47;74.90;;;25.83;;
20523;SDS011;10420;48.542;12.270;2022-12-18T17:26:48;67.57;;;25.00;;
20523;SDS011;10420;48.542;12.270;2022-12-18T17:31:49;74.23;;;23.90;;
20523;SDS011;10420;48.542;12.270;2022-12-18T17:36:50;63.90;;;22.67;;
20523;SDS011;10420;48.542;12.270;2022-12-18T17:41:51;59.67;;;21.07;;
20523;SDS011;10420;48.542;12.270;2022-12-18T17:46:51;71.13;;;22.97;;
20523;SDS011;10420;48.542;12.270;2022-12-18T17:51:52;76.03;;;25.57;;
20523;SDS011;10420;48.542;12.270;2022-12-18T17:56:53;73.73;;;24.73;;
20523;SDS011;10420;48.542;12.270;2022-12-18T18:01:54;75.40;;;24.97;;
20523;SDS011;10420;48.542;12.270;2022-12-18T18:06:55;98.00;;;28.23;;
20523;SDS011;10420;48.542;12.270;2022-12-18T18:11:55;94.73;;;31.37;;
20523;SDS011;10420;48.542;12.270;2022-12-18T18:17:14;101.77;;;34.67;;
20523;SDS011;10420;48.542;12.270;2022-12-18T18:22:15;93.83;;;31.53;;
20523;SDS011;10420;48.542;12.270;2022-12-18T18:27:16;78.73;;;28.63;;
20523;SDS011;10420;48.542;12.270;2022-12-18T18:32:16;81.70;;;27.77;;
20523;SDS011;10420;48.542;12.270;2022-12-18T18:37:17;82.07;;;27.87;;
20523;SDS011;10420;48.542;12.270;2022-12-18T18:42:18;77.13;;;26.73;;
20523;SDS011;10420;48.542;12.270;2022-12-18T18:47:18;78.27;;;26.53;;
20523;SDS011;10420;48.542;12.270;2022-12-18T18:52:20;77.40;;;27.23;;
20523;SDS011;10420;48.542;12.270;2022-12-18T18:57:23;81.13;;;30.50;;
20523;SDS011;10420;48.542;12.270;2022-12-18T19:02:24;87.57;;;29.37;;
20523;SDS011;10420;48.542;12.270;2022-12-18T19:07:24;90.47;;;34.33;;
20523;SDS011;10420;48.542;12.270;2022-12-18T19:12:25;70.50;;;24.83;;
20523;SDS011;10420;48.542;12.270;2022-12-18T19:17:45;65.57;;;23.23;;
20523;SDS011;10420;48.542;12.270;2022-12-18T19:22:48;49.10;;;17.93;;
20523;SDS011;10420;48.542;12.270;2022-12-18T19:27:48;74.37;;;26.50;;
20523;SDS011;10420;48.542;12.270;2022-12-18T19:32:49;66.07;;;23.07;;
20523;SDS011;10420;48.542;12.270;2022-12-18T19:37:50;60.53;;;21.97;;
20523;SDS011;10420;48.542;12.270;2022-12-18T19:42:50;67.63;;;23.77;;
20523;SDS011;10420;48.542;12.270;2022-12-18T19:47:51;74.27;;;25.70;;
20523;SDS011;10420;48.542;12.270;2022-12-18T19:52:52;76.43;;;25.63;;
20523;SDS011;10420;48.542;12.270;2022-12-18T19:57:52;64.80;;;22.40;;
20523;SDS011;10420;48.542;12.270;2022-12-18T20:02:53;73.90;;;26.53;;
20523;SDS011;10420;48.542;12.270;2022-12-18T20:07:53;62.97;;;22.10;;
20523;SDS011;10420;48.542;12.270;2022-12-18T20:12:54;81.27;;;28.33;;
20523;SDS011;10420;48.542;12.270;2022-12-18T20:17:55;115.97;;;44.17;;
20523;SDS011;10420;48.542;12.270;2022-12-18T20:22:55;73.00;;;23.70;;
20523;SDS011;10420;48.542;12.270;2022-12-18T20:27:56;74.50;;;25.03;;
20523;SDS011;10420;48.542;12.270;2022-12-18T20:32:57;96.13;;;37.80;;
20523;SDS011;10420;48.542;12.270;2022-12-18T20:37:57;65.70;;;25.30;;
20523;SDS011;10420;48.542;12.270;2022-12-18T20:42:58;70.10;;;24.23;;
20523;SDS011;10420;48.542;12.270;2022-12-18T20:47:59;51.40;;;17.50;;
20523;SDS011;10420;48.542;12.270;2022-12-18T20:53:00;72.33;;;25.10;;
20523;SDS011;10420;48.542;12.270;2022-12-18T20:58:01;62.30;;;23.50;;
20523;SDS011;10420;48.542;12.270;2022-12-18T21:03:01;67.87;;;23.87;;
20523;SDS011;10420;48.542;12.270;2022-12-18T21:08:03;63.03;;;23.37;;
20523;SDS011;10420;48.542;12.270;2022-12-18T21:13:04;57.67;;;23.30;;
20523;SDS011;10420;48.542;12.270;2022-12-18T21:18:05;65.87;;;23.23;;
20523;SDS011;10420;48.542;12.270;2022-12-18T21:23:05;66.23;;;24.60;;
20523;SDS011;10420;48.542;12.270;2022-12-18T21:28:07;70.90;;;24.23;;
20523;SDS011;10420;48.542;12.270;2022-12-18T21:33:07;71.13;;;23.40;;
20523;SDS011;10420;48.542;12.270;2022-12-18T21:38:08;74.47;;;24.40;;
20523;SDS011;10420;48.542;12.270;2022-12-18T21:43:08;68.67;;;23.53;;
20523;SDS011;10420;48.542;12.270;2022-12-18T21:48:28;69.10;;;25.17;;
20523;SDS011;10420;48.542;12.270;2022-12-18T21:53:28;75.17;;;25.43;;
20523;SDS011;10420;48.542;12.270;2022-12-18T21:58:29;104.60;;;39.90;;
20523;SDS011;10420;48.542;12.270;2022-12-18T22:03:29;72.17;;;25.47;;
20523;SDS011;10420;48.542;12.270;2022-12-18T22:08:30;67.93;;;22.10;;
20523;SDS011;10420;48.542;12.270;2022-12-18T22:13:31;76.23;;;25.37;;
20523;SDS011;10420;48.542;12.270;2022-12-18T22:18:31;71.30;;;25.30;;
20523;SDS011;10420;48.542;12.270;2022-12-18T22:23:32;74.50;;;25.13;;
20523;SDS011;10420;48.542;12.270;2022-12-18T22:28:33;79.40;;;24.80;;
20523;SDS011;10420;48.542;12.270;2022-12-18T22:33:52;80.67;;;27.43;;
20523;SDS011;10420;48.542;12.270;2022-12-18T22:38:53;83.53;;;28.33;;
20523;SDS011;10420;48.542;12.270;2022-12-18T22:43:53;63.03;;;21.73;;
20523;SDS011;10420;48.542;12.270;2022-12-18T22:48:54;61.50;;;20.57;;
20523;SDS011;10420;48.542;12.270;2022-12-18T22:53:55;80.93;;;27.83;;
20523;SDS011;10420;48.542;12.270;2022-12-18T22:58:55;68.97;;;22.27;;
20523;SDS011;10420;48.542;12.270;2022-12-18T23:03:56;96.50;;;32.80;;
20523;SDS011;10420;48.542;12.270;2022-12-18T23:08:57;82.20;;;27.13;;
20523;SDS011;10420;48.542;12.270;2022-12-18T23:13:58;86.53;;;28.40;;
20523;SDS011;10420;48.542;12.270;2022-12-18T23:18:59;72.27;;;25.70;;
20523;SDS011;10420;48.542;12.270;2022-12-18T23:23:59;82.43;;;27.83;;
20523;SDS011;10420;48.542;12.270;2022-12-18T23:29:00;86.10;;;28.43;;
20523;SDS011;10420;48.542;12.270;2022-12-18T23:34:03;76.03;;;26.63;;
20523;SDS011;10420;48.542;12.270;2022-12-18T23:39:05;75.20;;;26.10;;
20523;SDS011;10420;48.542;12.270;2022-12-18T23:44:06;91.43;;;30.07;;
20523;SDS011;10420;48.542;12.270;2022-12-18T23:49:06;81.37;;;27.97;;
20523;SDS011;10420;48.542;12.270;2022-12-18T23:54:08;92.10;;;27.80;;
20523;SDS011;10420;48.542;12.270;2022-12-18T23:59:09;87.77;;;30.23;;
